createdAt,value
2019-04-25T00:02:13.728Z,98225.37
2019-04-25T00:04:47.148Z,98230.47
2019-04-25T00:07:19.211Z,98229.41
2019-04-25T00:09:58.172Z,98221.97
2019-04-25T00:12:30.066Z,98219.62
2019-04-25T00:15:03.056Z,98230.78
2019-04-25T00:17:35.439Z,98225.67
2019-04-25T00:20:08.311Z,98224.38
2019-04-25T00:22:54.329Z,98223.31
2019-04-25T00:25:46.909Z,98224.83
2019-04-25T00:28:18.560Z,98231.23
2019-04-25T00:30:51.997Z,98227.94
2019-04-25T00:33:24.181Z,98226.52
2019-04-25T00:35:56.523Z,98227.72
2019-04-25T00:38:28.552Z,98225.22
2019-04-25T00:41:01.661Z,98224.00
2019-04-25T00:43:33.955Z,98220.45
2019-04-25T00:46:05.774Z,98216.95
2019-04-25T00:48:39.114Z,98214.01
2019-04-25T00:51:11.818Z,98216.19
2019-04-25T00:53:44.642Z,98215.65
2019-04-25T00:56:16.680Z,98214.97
2019-04-25T00:59:14.017Z,98212.41
2019-04-25T01:02:11.482Z,98205.73
2019-04-25T01:04:45.263Z,98211.48
2019-04-25T01:07:17.515Z,98207.26
2019-04-25T01:09:52.418Z,98203.08
2019-04-25T01:12:25.553Z,98206.86
2019-04-25T01:14:57.991Z,98207.09
2019-04-25T01:17:31.480Z,98205.34
2019-04-25T01:20:04.225Z,98200.80
2019-04-25T01:22:36.098Z,98206.84
2019-04-25T01:25:08.585Z,98200.27
2019-04-25T01:27:41.346Z,98208.15
2019-04-25T01:30:14.180Z,98208.77
2019-04-25T01:32:47.111Z,98209.34
2019-04-25T01:35:47.380Z,98208.68
2019-04-25T01:38:28.027Z,98210.14
2019-04-25T01:41:18.522Z,98206.84
2019-04-25T01:43:59.836Z,98206.72
2019-04-25T01:46:32.049Z,98211.44
2019-04-25T01:49:04.408Z,98209.39
2019-04-25T01:51:36.784Z,98223.63
2019-04-25T01:54:08.672Z,98218.91
2019-04-25T01:56:40.922Z,98224.07
2019-04-25T01:59:13.800Z,98220.38
2019-04-25T02:01:47.837Z,98214.91
2019-04-25T02:04:19.817Z,98221.80
2019-04-25T02:06:54.362Z,98219.30
2019-04-25T02:09:25.779Z,98223.09
2019-04-25T02:12:15.542Z,98223.54
2019-04-25T02:14:47.372Z,98229.94
2019-04-25T02:17:19.572Z,98218.11
2019-04-25T02:19:52.141Z,98219.45
2019-04-25T02:22:24.548Z,98218.37
2019-04-25T02:24:57.127Z,98217.03
2019-04-25T02:27:29.176Z,98216.63
2019-04-25T02:30:01.372Z,98215.58
2019-04-25T02:32:36.806Z,98207.92
2019-04-25T02:35:09.733Z,98215.89
2019-04-25T02:37:44.835Z,98216.59
2019-04-25T02:40:19.883Z,98212.41
2019-04-25T02:42:54.203Z,98208.01
2019-04-25T02:46:00.520Z,98208.69
2019-04-25T02:48:51.296Z,98213.00
2019-04-25T02:51:35.057Z,98208.55
2019-04-25T02:54:08.166Z,98212.23
2019-04-25T02:56:41.220Z,98214.15
2019-04-25T02:59:14.903Z,98219.22
2019-04-25T03:01:46.729Z,98222.78
2019-04-25T03:04:19.189Z,98220.69
2019-04-25T03:06:51.513Z,98228.20
2019-04-25T03:09:24.974Z,98222.88
2019-04-25T03:11:58.779Z,98224.38
2019-04-25T03:14:30.897Z,98225.22
2019-04-25T03:17:05.075Z,98225.30
2019-04-25T03:20:11.204Z,98232.52
2019-04-25T03:22:40.709Z,98229.62
2019-04-25T03:25:16.483Z,98231.00
2019-04-25T03:27:46.378Z,98227.89
2019-04-25T03:30:18.543Z,98229.94
2019-04-25T03:32:51.607Z,98231.31
2019-04-25T03:35:24.869Z,98228.95
2019-04-25T03:37:56.711Z,98229.62
2019-04-25T03:40:28.764Z,98229.84
2019-04-25T03:43:01.304Z,98227.27
2019-04-25T03:45:34.403Z,98226.28
2019-04-25T03:48:06.484Z,98219.84
2019-04-25T03:50:39.591Z,98222.95
2019-04-25T03:53:12.132Z,98225.45
2019-04-25T03:55:45.209Z,98219.98
2019-04-25T03:58:17.242Z,98224.86
2019-04-25T04:00:48.877Z,98230.78
2019-04-25T04:03:20.717Z,98226.66
2019-04-25T04:05:54.004Z,98227.13
2019-04-25T04:08:25.941Z,98232.30
2019-04-25T04:10:57.722Z,98238.20
2019-04-25T04:13:29.482Z,98241.09
2019-04-25T04:16:03.414Z,98248.20
2019-04-25T04:18:54.294Z,98248.75
2019-04-25T04:21:44.815Z,98243.73
2019-04-25T04:24:21.277Z,98246.30
2019-04-25T04:27:10.749Z,98251.47
2019-04-25T04:29:43.218Z,98246.78
2019-04-25T04:32:16.347Z,98254.67
2019-04-25T04:34:49.005Z,98248.05
2019-04-25T04:37:20.699Z,98241.46
2019-04-25T04:39:53.618Z,98249.28
2019-04-25T04:42:26.752Z,98249.81
2019-04-25T04:44:59.788Z,98248.75
2019-04-25T04:47:31.494Z,98253.37
2019-04-25T04:50:03.874Z,98249.72
2019-04-25T04:52:35.941Z,98258.66
2019-04-25T04:55:10.041Z,98262.98
2019-04-25T04:57:41.451Z,98269.52
2019-04-25T05:00:14.610Z,98268.63
2019-04-25T05:03:04.547Z,98268.10
2019-04-25T05:05:55.299Z,98261.78
2019-04-25T05:08:36.149Z,98269.44
2019-04-25T05:11:07.873Z,98266.86
2019-04-25T05:13:39.784Z,98271.65
2019-04-25T05:16:12.545Z,98275.83
2019-04-25T05:18:45.068Z,98271.33
2019-04-25T05:21:17.155Z,98269.58
2019-04-25T05:23:49.109Z,98280.45
2019-04-25T05:26:21.069Z,98281.77
2019-04-25T05:28:53.307Z,98281.89
2019-04-25T05:31:34.127Z,98286.31
2019-04-25T05:34:06.140Z,98282.44
2019-04-25T05:36:40.716Z,98285.87
2019-04-25T05:39:15.689Z,98280.52
2019-04-25T05:41:56.105Z,98279.98
2019-04-25T05:44:27.975Z,98288.00
2019-04-25T05:46:59.624Z,98288.00
2019-04-25T05:49:31.501Z,98288.27
2019-04-25T05:52:04.027Z,98290.70
2019-04-25T05:54:35.955Z,98288.41
2019-04-25T05:57:07.870Z,98289.06
2019-04-25T05:59:40.378Z,98288.73
2019-04-25T06:02:13.871Z,98294.89
2019-04-25T06:04:46.493Z,98293.16
2019-04-25T06:07:19.299Z,98296.88
2019-04-25T06:10:19.483Z,98297.17
2019-04-25T06:13:13.787Z,98302.28
2019-04-25T06:15:47.390Z,98301.06
2019-04-25T06:18:44.055Z,98299.48
2019-04-25T06:21:15.956Z,98299.24
2019-04-25T06:24:19.166Z,98299.44
2019-04-25T06:27:16.977Z,98302.13
2019-04-25T06:29:59.105Z,98294.06
2019-04-25T06:32:27.420Z,98292.94
2019-04-25T06:34:59.801Z,98305.55
2019-04-25T06:37:31.814Z,98305.00
2019-04-25T06:40:05.096Z,98307.86
2019-04-25T06:42:39.079Z,98307.86
2019-04-25T06:45:25.228Z,98307.20
2019-04-25T06:48:28.995Z,98306.47
2019-04-25T06:51:00.918Z,98310.33
2019-04-25T06:53:34.474Z,98299.56
2019-04-25T06:56:06.990Z,98314.78
2019-04-25T06:58:39.036Z,98316.75
2019-04-25T07:01:10.966Z,98315.64
2019-04-25T07:03:44.177Z,98319.34
2019-04-25T07:06:16.603Z,98328.78
2019-04-25T07:08:48.391Z,98315.27
2019-04-25T07:11:20.378Z,98324.28
2019-04-25T07:13:53.695Z,98326.63
2019-04-25T07:16:26.052Z,98324.74
2019-04-25T07:18:58.107Z,98325.61
2019-04-25T07:21:30.313Z,98325.38
2019-04-25T07:24:02.286Z,98335.40
2019-04-25T07:27:07.735Z,98333.61
2019-04-25T07:29:49.623Z,98329.51
2019-04-25T07:32:31.189Z,98336.78
2019-04-25T07:35:03.696Z,98345.80
2019-04-25T07:37:37.369Z,98348.00
2019-04-25T07:40:10.104Z,98349.80
2019-04-25T07:42:41.962Z,98342.60
2019-04-25T07:45:15.249Z,98342.98
2019-04-25T07:47:47.464Z,98342.55
2019-04-25T07:50:19.730Z,98351.02
2019-04-25T07:52:51.555Z,98350.98
2019-04-25T07:55:23.454Z,98354.89
2019-04-25T07:57:55.409Z,98350.89
2019-04-25T08:00:27.865Z,98352.61
2019-04-25T08:02:59.627Z,98353.00
2019-04-25T08:05:31.464Z,98348.95
2019-04-25T08:08:03.582Z,98353.32
2019-04-25T08:10:57.093Z,98353.81
2019-04-25T08:13:30.551Z,98357.84
2019-04-25T08:16:03.450Z,98359.28
2019-04-25T08:18:37.040Z,98367.20
2019-04-25T08:21:09.532Z,98363.48
2019-04-25T08:23:41.429Z,98367.52
2019-04-25T08:26:14.237Z,98362.55
2019-04-25T08:28:54.581Z,98364.88
2019-04-25T08:31:19.579Z,98365.69
2019-04-25T08:33:53.459Z,98368.33
2019-04-25T08:36:24.960Z,98362.77
2019-04-25T08:38:56.720Z,98355.66
2019-04-25T08:41:28.490Z,98365.39
2019-04-25T08:44:00.470Z,98367.68
2019-04-25T08:46:33.941Z,98363.92
2019-04-25T08:49:38.077Z,98372.09
2019-04-25T08:52:10.148Z,98364.49
2019-04-25T08:55:04.296Z,98356.42
2019-04-25T08:57:57.627Z,98362.31
2019-04-25T09:00:58.159Z,98360.87
2019-04-25T09:03:25.446Z,98362.70
2019-04-25T09:05:57.317Z,98362.83
2019-04-25T09:08:33.044Z,98361.34
2019-04-25T09:11:07.809Z,98365.00
2019-04-25T09:13:39.880Z,98369.25
2019-04-25T09:16:11.512Z,98360.66
2019-04-25T09:18:44.293Z,98368.84
2019-04-25T09:21:16.727Z,98367.94
2019-04-25T09:23:48.489Z,98357.98
2019-04-25T09:26:24.105Z,98358.80
2019-04-25T09:28:56.022Z,98351.73
2019-04-25T09:31:27.891Z,98346.74
2019-04-25T09:34:00.315Z,98347.48
2019-04-25T09:36:33.628Z,98344.20
2019-04-25T09:39:16.601Z,98346.90
2019-04-25T09:41:48.448Z,98346.96
2019-04-25T09:44:24.274Z,98352.20
2019-04-25T09:46:56.012Z,98339.05
2019-04-25T09:49:34.974Z,98346.22
2019-04-25T09:52:09.814Z,98344.89
2019-04-25T09:54:56.900Z,98344.89
2019-04-25T09:57:47.549Z,98341.70
2019-04-25T10:00:46.010Z,98343.48
2019-04-25T10:03:18.761Z,98344.09
2019-04-25T10:05:50.864Z,98345.09
2019-04-25T10:08:24.176Z,98344.07
2019-04-25T10:10:56.026Z,98351.77
2019-04-25T10:13:27.733Z,98357.84
2019-04-25T10:16:11.571Z,98350.53
2019-04-25T10:18:44.598Z,98347.51
2019-04-25T10:21:16.929Z,98355.52
2019-04-25T10:23:51.128Z,98349.06
2019-04-25T10:26:23.204Z,98351.05
2019-04-25T10:28:56.314Z,98342.36
2019-04-25T10:31:28.170Z,98344.33
2019-04-25T10:34:00.020Z,98354.55
2019-04-25T10:36:33.496Z,98351.89
2019-04-25T10:39:10.651Z,98342.16
2019-04-25T10:41:41.291Z,98344.77
2019-04-25T10:44:14.134Z,98340.94
2019-04-25T10:46:47.332Z,98332.01
2019-04-25T10:49:20.254Z,98330.63
2019-04-25T10:51:52.418Z,98325.23
2019-04-25T10:54:24.408Z,98325.09
2019-04-25T10:56:56.414Z,98330.81
2019-04-25T10:59:28.340Z,98333.95
2019-04-25T11:02:00.319Z,98331.19
2019-04-25T11:04:38.040Z,98334.31
2019-04-25T11:07:09.984Z,98328.09
2019-04-25T11:09:45.010Z,98322.61
2019-04-25T11:12:17.334Z,98317.37
2019-04-25T11:14:50.364Z,98323.61
2019-04-25T11:17:24.229Z,98314.35
2019-04-25T11:19:56.432Z,98312.20
2019-04-25T11:22:28.179Z,98317.11
2019-04-25T11:25:00.103Z,98313.27
2019-04-25T11:27:34.072Z,98308.16
2019-04-25T11:30:11.520Z,98309.06
2019-04-25T11:32:44.789Z,98299.63
2019-04-25T11:35:16.719Z,98306.03
2019-04-25T11:37:48.816Z,98306.52
2019-04-25T11:40:34.648Z,98304.52
2019-04-25T11:43:07.196Z,98300.90
2019-04-25T11:45:40.254Z,98301.39
2019-04-25T11:48:13.446Z,98302.52
2019-04-25T11:50:49.920Z,98296.97
2019-04-25T11:53:20.155Z,98293.94
2019-04-25T11:55:53.784Z,98290.51
2019-04-25T11:58:25.691Z,98284.16
2019-04-25T12:00:59.963Z,98280.32
2019-04-25T12:03:33.684Z,98283.66
2019-04-25T12:06:07.060Z,98286.57
2019-04-25T12:08:47.735Z,98271.36
2019-04-25T12:11:20.616Z,98275.23
2019-04-25T12:13:54.214Z,98267.95
2019-04-25T12:16:27.196Z,98264.94
2019-04-25T12:18:59.150Z,98260.69
2019-04-25T12:21:31.153Z,98259.98
2019-04-25T12:24:05.480Z,98247.31
2019-04-25T12:26:36.437Z,98248.19
2019-04-25T12:29:08.444Z,98251.52
2019-04-25T12:31:40.757Z,98249.77
2019-04-25T12:34:14.096Z,98242.74
2019-04-25T12:36:46.078Z,98232.78
2019-04-25T12:39:18.232Z,98231.83
2019-04-25T12:41:50.471Z,98232.66
2019-04-25T12:44:46.479Z,98235.69
2019-04-25T12:47:21.152Z,98236.94
2019-04-25T12:49:54.873Z,98231.83
2019-04-25T12:52:27.684Z,98222.00
2019-04-25T12:54:59.384Z,98215.70
2019-04-25T12:57:31.211Z,98215.14
2019-04-25T13:00:04.176Z,98217.74
2019-04-25T13:02:36.606Z,98215.25
2019-04-25T13:05:09.591Z,98213.44
2019-04-25T13:07:42.341Z,98208.14
2019-04-25T13:10:15.394Z,98203.42
2019-04-25T13:13:05.460Z,98209.41
2019-04-25T13:15:38.578Z,98207.27
2019-04-25T13:18:10.452Z,98200.51
2019-04-25T13:20:42.286Z,98190.53
2019-04-25T13:23:14.519Z,98189.26
2019-04-25T13:25:46.578Z,98188.32
2019-04-25T13:28:36.496Z,98186.16
2019-04-25T13:31:27.269Z,98172.77
2019-04-25T13:34:07.595Z,98177.59
2019-04-25T13:36:39.814Z,98171.78
2019-04-25T13:39:17.452Z,98164.80
2019-04-25T13:41:50.499Z,98162.55
2019-04-25T13:44:22.305Z,98163.28
2019-04-25T13:46:54.261Z,98168.95
2019-04-25T13:49:27.199Z,98161.83
2019-04-25T13:51:59.730Z,98166.63
2019-04-25T13:54:31.532Z,98161.44
2019-04-25T13:57:03.591Z,98150.10
2019-04-25T13:59:35.847Z,98149.84
2019-04-25T14:02:08.480Z,98152.20
2019-04-25T14:04:40.507Z,98142.20
2019-04-25T14:07:13.608Z,98140.90
2019-04-25T14:09:45.431Z,98150.52
2019-04-25T14:12:18.617Z,98154.72
2019-04-25T14:14:50.389Z,98154.59
2019-04-25T14:17:35.760Z,98151.82
2019-04-25T14:20:19.763Z,98152.13
2019-04-25T14:22:53.327Z,98155.24
2019-04-25T14:25:27.138Z,98155.13
2019-04-25T14:27:59.093Z,98155.47
2019-04-25T14:30:32.584Z,98155.88
2019-04-25T14:33:05.985Z,98145.66
2019-04-25T14:35:37.925Z,98143.84
2019-04-25T14:38:09.921Z,98139.72
2019-04-25T14:40:43.177Z,98141.15
2019-04-25T14:43:15.171Z,98142.38
2019-04-25T14:45:46.858Z,98151.39
2019-04-25T14:48:18.691Z,98151.72
2019-04-25T14:50:50.429Z,98153.43
2019-04-25T14:53:24.151Z,98147.66
2019-04-25T14:56:15.335Z,98146.91
2019-04-25T14:58:47.511Z,98145.78
2019-04-25T15:01:22.657Z,98143.15
2019-04-25T15:03:54.550Z,98130.09
2019-04-25T15:06:26.209Z,98124.06
2019-04-25T15:08:58.159Z,98126.77
2019-04-25T15:11:31.487Z,98122.00
2019-04-25T15:14:04.534Z,98119.55
2019-04-25T15:16:36.355Z,98111.03
2019-04-25T15:19:08.197Z,98108.44
2019-04-25T15:21:41.739Z,98103.86
2019-04-25T15:24:13.598Z,98103.33
2019-04-25T15:26:45.391Z,98102.68
2019-04-25T15:29:17.678Z,98105.16
2019-04-25T15:31:55.739Z,98102.33
2019-04-25T15:34:25.990Z,98106.11
2019-04-25T15:37:02.865Z,98101.31
2019-04-25T15:39:59.188Z,98106.71
2019-04-25T15:43:04.979Z,98104.80
2019-04-25T15:45:51.164Z,98096.72
2019-04-25T15:48:26.403Z,98103.34
2019-04-25T15:50:58.372Z,98091.25
2019-04-25T15:53:30.646Z,98084.94
2019-04-25T15:56:02.528Z,98081.53
2019-04-25T15:58:37.352Z,98080.22
2019-04-25T16:01:12.049Z,98076.68
2019-04-25T16:03:44.471Z,98068.16
2019-04-25T16:06:16.755Z,98070.80
2019-04-25T16:09:01.986Z,98074.10
2019-04-25T16:11:35.391Z,98072.10
2019-04-25T16:14:07.413Z,98069.23
2019-04-25T16:16:40.324Z,98075.97
2019-04-25T16:19:12.390Z,98076.83
2019-04-25T16:21:44.166Z,98086.48
2019-04-25T16:24:16.061Z,98090.80
2019-04-25T16:26:47.939Z,98086.77
2019-04-25T16:29:19.760Z,98091.90
2019-04-25T16:31:51.696Z,98088.53
2019-04-25T16:34:23.687Z,98087.45
2019-04-25T16:36:55.610Z,98089.35
2019-04-25T16:39:29.661Z,98093.48
2019-04-25T16:42:01.488Z,98097.92
2019-04-25T16:44:33.995Z,98103.31
2019-04-25T16:47:08.801Z,98097.92
2019-04-25T16:49:42.023Z,98100.13
2019-04-25T16:52:14.803Z,98097.36
2019-04-25T16:54:46.687Z,98090.25
2019-04-25T16:57:18.859Z,98091.10
2019-04-25T16:59:52.031Z,98095.72
2019-04-25T17:02:35.532Z,98101.92
2019-04-25T17:05:02.549Z,98103.84
2019-04-25T17:07:50.924Z,98104.02
2019-04-25T17:10:32.812Z,98100.88
2019-04-25T17:13:04.920Z,98102.92
2019-04-25T17:15:45.851Z,98097.72
2019-04-25T17:18:20.829Z,98097.72
2019-04-25T17:20:58.929Z,98095.02
2019-04-25T17:23:31.181Z,98093.02
2019-04-25T17:26:04.641Z,98087.78
2019-04-25T17:28:41.132Z,98087.78
2019-04-25T17:31:23.154Z,98101.19
2019-04-25T17:34:05.557Z,98101.19
2019-04-25T17:36:46.535Z,98095.89
2019-04-25T17:39:40.035Z,98095.53
2019-04-25T17:42:15.868Z,98091.59
2019-04-25T17:44:48.168Z,98091.59
2019-04-25T17:47:20.035Z,98094.66
2019-04-25T17:49:53.816Z,98101.11
2019-04-25T17:52:28.430Z,98107.16
2019-04-25T17:55:01.368Z,98106.07
2019-04-25T17:57:39.952Z,98107.47
2019-04-25T18:00:19.227Z,98104.50
2019-04-25T18:02:58.680Z,98102.19
2019-04-25T18:05:25.820Z,98107.47
2019-04-25T18:07:58.147Z,98102.16
2019-04-25T18:10:31.411Z,98103.73
2019-04-25T18:13:05.264Z,98103.95
2019-04-25T18:15:54.099Z,98102.38
2019-04-25T18:18:37.108Z,98100.78
2019-04-25T18:21:08.907Z,98102.51
2019-04-25T18:23:58.980Z,98104.86
2019-04-25T18:26:45.613Z,98100.67
2019-04-25T18:29:17.612Z,98098.23
2019-04-25T18:31:50.654Z,98102.73
2019-04-25T18:34:44.424Z,98092.92
2019-04-25T18:37:37.202Z,98097.00
2019-04-25T18:40:26.289Z,98083.41
2019-04-25T18:43:16.881Z,98089.21
2019-04-25T18:45:52.040Z,98083.65
2019-04-25T18:48:24.394Z,98082.14
2019-04-25T18:50:57.561Z,98077.56
2019-04-25T18:53:47.376Z,98076.27
2019-04-25T18:56:27.697Z,98081.59
2019-04-25T18:59:20.161Z,98078.19
2019-04-25T19:02:22.428Z,98076.32
2019-04-25T19:05:05.573Z,98071.52
2019-04-25T19:07:38.610Z,98071.91
2019-04-25T19:10:13.457Z,98072.28
2019-04-25T19:12:45.361Z,98073.82
2019-04-25T19:15:17.591Z,98078.33
2019-04-25T19:17:49.535Z,98071.31
2019-04-25T19:20:21.687Z,98076.59
2019-04-25T19:22:54.901Z,98073.31
2019-04-25T19:25:29.039Z,98073.39
2019-04-25T19:28:01.686Z,98073.64
2019-04-25T19:30:33.613Z,98073.84
2019-04-25T19:33:07.627Z,98071.05
2019-04-25T19:35:39.525Z,98068.13
2019-04-25T19:38:14.490Z,98057.91
2019-04-25T19:40:54.021Z,98058.46
2019-04-25T19:43:57.855Z,98058.46
2019-04-25T19:46:41.454Z,98048.66
2019-04-25T19:49:13.951Z,98051.06
2019-04-25T19:51:47.314Z,98054.99
2019-04-25T19:54:19.204Z,98043.31
2019-04-25T19:56:51.764Z,98039.91
2019-04-25T19:59:23.672Z,98044.68
2019-04-25T20:01:57.057Z,98047.54
2019-04-25T20:04:37.659Z,98035.28
2019-04-25T20:07:14.142Z,98031.75
2019-04-25T20:10:04.690Z,98029.61
2019-04-25T20:12:39.906Z,98032.34
2019-04-25T20:15:13.146Z,98028.08
2019-04-25T20:17:45.922Z,98014.81
2019-04-25T20:20:18.002Z,98010.73
2019-04-25T20:22:52.472Z,98017.44
2019-04-25T20:25:25.399Z,98018.87
2019-04-25T20:27:57.272Z,98020.22
2019-04-25T20:30:29.909Z,98016.39
2019-04-25T20:33:01.677Z,98011.92
2019-04-25T20:35:34.131Z,98012.07
2019-04-25T20:38:05.914Z,98008.90
2019-04-25T20:40:38.993Z,98006.37
2019-04-25T20:43:11.075Z,98011.68
2019-04-25T20:45:42.785Z,98001.49
2019-04-25T20:48:14.675Z,97999.12
2019-04-25T20:50:46.945Z,97998.55
2019-04-25T20:53:18.861Z,97997.21
2019-04-25T20:55:50.824Z,98005.49
2019-04-25T20:58:23.905Z,98000.89
2019-04-25T21:00:58.409Z,97999.00
2019-04-25T21:03:32.532Z,97999.79
2019-04-25T21:06:23.012Z,98008.82
2019-04-25T21:08:55.457Z,98001.95
2019-04-25T21:11:27.101Z,98003.75
2019-04-25T21:14:35.616Z,98001.92
2019-04-25T21:17:10.818Z,97996.46
2019-04-25T21:19:44.494Z,97992.03
2019-04-25T21:22:16.339Z,97991.88
2019-04-25T21:24:48.245Z,97992.74
2019-04-25T21:27:20.252Z,97987.83
2019-04-25T21:29:52.174Z,97991.45
2019-04-25T21:32:24.793Z,97991.45
2019-04-25T21:34:57.184Z,97991.45
2019-04-25T21:37:29.971Z,97980.26
2019-04-25T21:40:09.840Z,97977.13
2019-04-25T21:42:46.484Z,97977.52
2019-04-25T21:45:19.113Z,97969.94
2019-04-25T21:47:52.353Z,97968.58
2019-04-25T21:50:24.441Z,97964.11
2019-04-25T21:52:56.915Z,97962.80
2019-04-25T21:55:29.061Z,97955.05
2019-04-25T21:58:01.911Z,97959.26
2019-04-25T22:00:52.620Z,97961.84
2019-04-25T22:03:27.251Z,97956.29
2019-04-25T22:05:59.173Z,97954.46
2019-04-25T22:08:30.985Z,97955.27
2019-04-25T22:11:03.343Z,97955.56
2019-04-25T22:13:35.271Z,97957.13
2019-04-25T22:16:07.646Z,97954.14
2019-04-25T22:18:40.056Z,97951.47
2019-04-25T22:21:12.301Z,97946.52
2019-04-25T22:23:44.631Z,97943.64
2019-04-25T22:26:16.457Z,97946.61
2019-04-25T22:28:48.534Z,97943.44
2019-04-25T22:31:28.106Z,97940.55
2019-04-25T22:34:18.595Z,97946.16
2019-04-25T22:36:50.753Z,97942.94
2019-04-25T22:39:22.611Z,97945.72
2019-04-25T22:41:55.233Z,97944.93
2019-04-25T22:44:27.365Z,97943.94
2019-04-25T22:47:02.505Z,97935.49
2019-04-25T22:49:34.403Z,97938.97
2019-04-25T22:52:07.047Z,97935.05
2019-04-25T22:54:39.335Z,97928.24
2019-04-25T22:57:11.183Z,97931.12
2019-04-25T22:59:43.189Z,97922.80
2019-04-25T23:02:31.296Z,97918.86
2019-04-25T23:05:19.378Z,97920.51
2019-04-25T23:07:51.225Z,97920.31
2019-04-25T23:10:23.359Z,97911.88
2019-04-25T23:12:55.252Z,97909.30
2019-04-25T23:15:26.881Z,97905.91
2019-04-25T23:17:59.336Z,97908.89
2019-04-25T23:20:31.288Z,97908.50
2019-04-25T23:23:04.397Z,97902.44
2019-04-25T23:25:55.351Z,97903.53
2019-04-25T23:28:30.834Z,97897.53
2019-04-25T23:31:24.686Z,97898.23
2019-04-25T23:33:58.116Z,97899.07
2019-04-25T23:36:29.809Z,97897.65
2019-04-25T23:39:01.654Z,97900.77
2019-04-25T23:41:36.760Z,97897.84
2019-04-25T23:44:08.703Z,97891.44
2019-04-25T23:46:41.785Z,97889.41
2019-04-25T23:49:14.739Z,97894.38
2019-04-25T23:51:47.637Z,97890.75
2019-04-25T23:54:19.796Z,97887.33
2019-04-25T23:56:51.550Z,97878.00
2019-04-25T23:59:23.747Z,97881.56
